Hayase Maru — JD2583 — position and weather

sailwx.info

Track history (hours):
 
Tides and Currents Weather Stations Pressure Air Temp Water Temp Dewpoint Dewpoint Depression Visibility Wind Speed Wind Dir Waves Ship Positions

Hayase Maru

Last reported at 2016-Feb-05 21:31 UTC. Time now 2016-Feb-05 22:16 UTC.
Position N 35°37' E 139°58'.

Length 73 m; draft 4 m.

Type: Ship. MMSI: 431000395.

Date/timePositionNaut miles runAvg speedWind from/ knotsBaromVisibWave heightAir tempDewpointWater temp
2016-Feb-05 21:31N 35°37' E 139°58'0 0.0
2016-Feb-05 20:31N 35°37' E 139°58'0 0.0
2016-Feb-05 19:19N 35°37' E 139°58'0 0.0
2016-Feb-05 18:31N 35°37' E 139°58'0 0.0
2016-Feb-05 17:31N 35°37' E 139°58'0 0.0
2016-Feb-05 16:13N 35°37' E 139°58'0 0.1
2016-Feb-05 15:31N 35°37' E 139°58'0 0.0
2016-Feb-05 14:25N 35°37' E 139°58'0 0.0
2016-Feb-05 13:31N 35°37' E 139°58'0 0.0
2016-Feb-05 12:31N 35°37' E 139°58'0 0.0
2016-Feb-05 11:31N 35°37' E 139°58'0 0.0
2016-Feb-05 10:31N 35°37' E 139°58'0 0.0
2016-Feb-05 09:31N 35°38' E 139°58'0 0.0
2016-Feb-05 08:31N 35°38' E 139°58'0 0.1
2016-Feb-05 07:31N 35°38' E 139°58'0 0.0
2016-Feb-05 06:19N 35°38' E 139°58'0 0.0
2016-Feb-05 05:31N 35°38' E 139°58'0 0.1
2016-Feb-05 04:23N 35°37' E 139°58'810.3
2016-Feb-05 03:33N 35°31' E 139°52'9 8.4
2016-Feb-05 02:32N 35°27' E 139°42'0 0.0
2016-Feb-05 01:32N 35°27' E 139°42'0 0.4
2016-Feb-05 00:33N 35°27' E 139°43'1 1.0
2016-Feb-04 23:32N 35°28' E 139°42'1 1.3
2016-Feb-04 22:33N 35°27' E 139°43'1 1.2
2016-Feb-04 21:31N 35°26' E 139°42'0 0.0
2016-Feb-04 20:31N 35°26' E 139°42'0 0.0
2016-Feb-04 19:31N 35°26' E 139°42'0 0.0
2016-Feb-04 18:31N 35°26' E 139°42'0 0.0
2016-Feb-04 17:31N 35°26' E 139°42'0 0.0
2016-Feb-04 16:31N 35°26' E 139°42'0 0.0
2016-Feb-04 15:31N 35°26' E 139°42'0 0.0
2016-Feb-04 14:28N 35°26' E 139°42'6 6.1
2016-Feb-04 13:33N 35°20' E 139°43'1211.5
2016-Feb-04 12:33N 35°09' E 139°46'1212.0
2016-Feb-04 11:33N 34°57' E 139°44'1110.5
2016-Feb-04 10:29N 34°52' E 139°57'1111.7
2016-Feb-04 09:30N 34°59' E 140°08'2411.4
2016-Feb-04 07:21N 35°15' E 140°30'911.2
2016-Feb-04 06:33N 35°22' E 140°37'33 8.1
2016-Feb-04 02:26N 35°55' E 140°42'2 0.9
2016-Feb-03 23:33N 35°53' E 140°41'3 2.7
2016-Feb-03 22:28N 35°56' E 140°42'6 5.8
2016-Feb-03 21:29N 36°01' E 140°44'4 3.9
2016-Feb-03 20:33N 36°05' E 140°44'  
2016-Feb-01 03:33N 35°00' E 140°10'1210.2
2016-Feb-01 02:24N 34°54' E 139°58'11 9.3
2016-Feb-01 01:12N 34°57' E 139°45'810.5
2016-Feb-01 00:26N 35°05' E 139°45'1010.8
2016-Jan-31 23:33N 35°14' E 139°46'1010.2
2016-Jan-31 22:33N 35°24' E 139°43'5 5.0
2016-Jan-31 21:29N 35°22' E 139°49'0 0.0
2016-Jan-31 20:32N 35°22' E 139°49'0 0.0
2016-Jan-31 19:32N 35°22' E 139°49'0 0.0
2016-Jan-31 18:32N 35°22' E 139°49'0 0.0
2016-Jan-31 17:32N 35°22' E 139°49'0 0.0
2016-Jan-31 16:32N 35°22' E 139°49'0 0.1
2016-Jan-31 15:32N 35°22' E 139°49'0 0.0
2016-Jan-31 14:32N 35°22' E 139°49'0 0.0
2016-Jan-31 13:32N 35°22' E 139°49'0 0.1
2016-Jan-31 12:32N 35°22' E 139°49'0 0.0
2016-Jan-31 11:32N 35°22' E 139°49'0 0.0
2016-Jan-31 10:32N 35°22' E 139°49'0 0.0
2016-Jan-31 09:29N 35°22' E 139°49'0 0.1
2016-Jan-31 08:32N 35°22' E 139°49'0 0.0
2016-Jan-31 07:29N 35°22' E 139°49'0 0.0
2016-Jan-31 06:32N 35°22' E 139°49'0 0.0
2016-Jan-31 05:32N 35°22' E 139°49'0 0.0
2016-Jan-31 04:32N 35°22' E 139°49'0 0.0
2016-Jan-31 03:32N 35°22' E 139°49'0 0.0
2016-Jan-31 02:23N 35°22' E 139°49'0 0.0
2016-Jan-31 01:32N 35°22' E 139°49'0 0.0
2016-Jan-31 00:32N 35°22' E 139°49'0 0.0
2016-Jan-30 23:32N 35°22' E 139°49'0 0.0
2016-Jan-30 22:29N 35°22' E 139°49'0 0.0
2016-Jan-30 21:32N 35°22' E 139°49'0 0.0
2016-Jan-30 20:32N 35°22' E 139°49'0 0.0
2016-Jan-30 19:32N 35°22' E 139°49'0 0.0
2016-Jan-30 18:23N 35°22' E 139°49'0 0.0
2016-Jan-30 17:32N 35°22' E 139°49'0 0.0
2016-Jan-30 16:32N 35°22' E 139°49'0 0.0
2016-Jan-30 15:32N 35°22' E 139°49'0 0.0
2016-Jan-30 14:32N 35°22' E 139°49'0 0.0
2016-Jan-30 13:32N 35°22' E 139°49'0 0.0
2016-Jan-30 12:32N 35°22' E 139°49'0 0.0
2016-Jan-30 11:29N 35°22' E 139°49'0 0.1
2016-Jan-30 10:32N 35°22' E 139°49'0 0.0
2016-Jan-30 09:32N 35°22' E 139°49'0 0.0
2016-Jan-30 08:32N 35°22' E 139°49'0 0.0
2016-Jan-30 07:29N 35°22' E 139°49'0 0.0
2016-Jan-30 06:32N 35°22' E 139°49'0 0.0
2016-Jan-30 05:29N 35°22' E 139°49'0 0.0
2016-Jan-30 04:32N 35°22' E 139°49'0 0.0
2016-Jan-30 03:32N 35°22' E 139°49'0 0.0
2016-Jan-30 02:32N 35°22' E 139°49'0 0.0
2016-Jan-30 01:32N 35°22' E 139°49'0 0.0
2016-Jan-30 00:32N 35°22' E 139°49'0 0.0
2016-Jan-29 23:32N 35°22' E 139°49'0 0.0
2016-Jan-29 22:32N 35°22' E 139°49'0 0.0
2016-Jan-29 21:33N 35°22' E 139°49'0 0.0
2016-Jan-29 20:34N 35°22' E 139°49'0 0.0
2016-Jan-29 19:33N 35°22' E 139°49'0 0.0
2016-Jan-29 18:33N 35°22' E 139°49'0 0.0
2016-Jan-29 17:33N 35°22' E 139°49'0 0.0
2016-Jan-29 16:34N 35°22' E 139°49'0 0.0
2016-Jan-29 15:33N 35°22' E 139°49'0 0.0
2016-Jan-29 14:33N 35°22' E 139°49'0 0.0
2016-Jan-29 13:25N 35°22' E 139°49'2 0.1
2016-Jan-28 22:24N 35°21' E 139°51'2 2.7
2016-Jan-28 21:33N 35°22' E 139°49'0 0.0
2016-Jan-28 20:33N 35°22' E 139°49'0 0.1
2016-Jan-28 19:33N 35°22' E 139°49'0 0.0
2016-Jan-28 18:30N 35°22' E 139°49'0 0.0
2016-Jan-28 17:33N 35°22' E 139°49'0 0.0
2016-Jan-28 16:33N 35°22' E 139°49'0 0.0
2016-Jan-28 15:24N 35°22' E 139°49'0 0.0
2016-Jan-28 14:33N 35°22' E 139°49'0 0.0
2016-Jan-28 13:30N 35°22' E 139°49'0 0.0
2016-Jan-28 12:33N 35°22' E 139°49'0 0.0
2016-Jan-28 11:33N 35°22' E 139°49'0 0.0
2016-Jan-28 10:33N 35°22' E 139°49'0 0.1
2016-Jan-28 09:33N 35°22' E 139°49'0 0.0
2016-Jan-28 08:33N 35°22' E 139°49'0 0.0
2016-Jan-28 07:33N 35°22' E 139°49'0 0.0
2016-Jan-28 06:33N 35°22' E 139°49'9 9.0
2016-Jan-28 05:33N 35°31' E 139°54'1110.7
2016-Jan-28 04:33N 35°37' E 140°05'0 0.0
2016-Jan-28 03:31N 35°37' E 140°05'0 0.0
2016-Jan-28 02:31N 35°37' E 140°05'0 0.0
2016-Jan-28 01:25N 35°37' E 140°05'0 0.0
2016-Jan-28 00:07N 35°37' E 140°05'0 0.0
2016-Jan-27 23:31N 35°37' E 140°05'2 1.9
2016-Jan-27 22:33N 35°35' E 140°04'9 9.5
2016-Jan-27 21:33N 35°36' E 139°52'4 3.8
2016-Jan-27 20:31N 35°38' E 139°48'0 0.0
2016-Jan-27 19:31N 35°38' E 139°48'0 0.0
2016-Jan-27 18:28N 35°38' E 139°48'0 0.0
2016-Jan-27 17:28N 35°38' E 139°48'0 0.0
2016-Jan-27 16:31N 35°38' E 139°48'0 0.0
2016-Jan-27 15:28N 35°38' E 139°48'0 0.0
2016-Jan-27 14:28N 35°38' E 139°48'0 0.0
2016-Jan-27 13:28N 35°38' E 139°48'0 0.0
2016-Jan-27 12:28N 35°38' E 139°48'0 0.0
2016-Jan-27 11:28N 35°38' E 139°48'0 0.1
2016-Jan-27 10:31N 35°38' E 139°48'0 0.1
2016-Jan-27 09:28N 35°38' E 139°48'0 0.0
2016-Jan-27 08:25N 35°38' E 139°48'0 0.1
2016-Jan-27 07:19N 35°38' E 139°48'0 0.1
2016-Jan-27 06:31N 35°38' E 139°48'0 0.0
2016-Jan-27 05:28N 35°38' E 139°48'1 1.4
2016-Jan-27 04:33N 35°37' E 139°49'9 9.3
2016-Jan-27 03:33N 35°28' E 139°50'1010.4
2016-Jan-27 02:33N 35°18' E 139°44'10 9.5
2016-Jan-27 01:33N 35°09' E 139°45'  
Track history (hours):
 
Tides and Currents Weather Stations Pressure Air Temp Water Temp Dewpoint Dewpoint Depression Visibility Wind Speed Wind Dir Waves Ship Positions

Hayase Maru

Last reported at 2016-Feb-05 21:31 UTC. Time now 2016-Feb-05 22:16 UTC.
Position N 35°37' E 139°58'.

Length 73 m; draft 4 m.

Type: Ship. MMSI: 431000395.

Date/timePositionNaut miles runAvg speedWind from/ knotsBaromVisibWave heightAir tempDewpointWater temp
2016-Feb-05 21:31N 35°37' E 139°58'0 0.0
2016-Feb-05 20:31N 35°37' E 139°58'0 0.0
2016-Feb-05 19:19N 35°37' E 139°58'0 0.0
2016-Feb-05 18:31N 35°37' E 139°58'0 0.0
2016-Feb-05 17:31N 35°37' E 139°58'0 0.0
2016-Feb-05 16:13N 35°37' E 139°58'0 0.1
2016-Feb-05 15:31N 35°37' E 139°58'0 0.0
2016-Feb-05 14:25N 35°37' E 139°58'0 0.0
2016-Feb-05 13:31N 35°37' E 139°58'0 0.0
2016-Feb-05 12:31N 35°37' E 139°58'0 0.0
2016-Feb-05 11:31N 35°37' E 139°58'0 0.0
2016-Feb-05 10:31N 35°37' E 139°58'0 0.0
2016-Feb-05 09:31N 35°38' E 139°58'0 0.0
2016-Feb-05 08:31N 35°38' E 139°58'0 0.1
2016-Feb-05 07:31N 35°38' E 139°58'0 0.0
2016-Feb-05 06:19N 35°38' E 139°58'0 0.0
2016-Feb-05 05:31N 35°38' E 139°58'0 0.1
2016-Feb-05 04:23N 35°37' E 139°58'810.3
2016-Feb-05 03:33N 35°31' E 139°52'9 8.4
2016-Feb-05 02:32N 35°27' E 139°42'0 0.0
2016-Feb-05 01:32N 35°27' E 139°42'0 0.4
2016-Feb-05 00:33N 35°27' E 139°43'1 1.0
2016-Feb-04 23:32N 35°28' E 139°42'1 1.3
2016-Feb-04 22:33N 35°27' E 139°43'1 1.2
2016-Feb-04 21:31N 35°26' E 139°42'0 0.0
2016-Feb-04 20:31N 35°26' E 139°42'0 0.0
2016-Feb-04 19:31N 35°26' E 139°42'0 0.0
2016-Feb-04 18:31N 35°26' E 139°42'0 0.0
2016-Feb-04 17:31N 35°26' E 139°42'0 0.0
2016-Feb-04 16:31N 35°26' E 139°42'0 0.0
2016-Feb-04 15:31N 35°26' E 139°42'0 0.0
2016-Feb-04 14:28N 35°26' E 139°42'6 6.1
2016-Feb-04 13:33N 35°20' E 139°43'1211.5
2016-Feb-04 12:33N 35°09' E 139°46'1212.0
2016-Feb-04 11:33N 34°57' E 139°44'1110.5
2016-Feb-04 10:29N 34°52' E 139°57'1111.7
2016-Feb-04 09:30N 34°59' E 140°08'2411.4
2016-Feb-04 07:21N 35°15' E 140°30'911.2
2016-Feb-04 06:33N 35°22' E 140°37'33 8.1
2016-Feb-04 02:26N 35°55' E 140°42'2 0.9
2016-Feb-03 23:33N 35°53' E 140°41'3 2.7
2016-Feb-03 22:28N 35°56' E 140°42'6 5.8
2016-Feb-03 21:29N 36°01' E 140°44'4 3.9
2016-Feb-03 20:33N 36°05' E 140°44'  
2016-Feb-01 03:33N 35°00' E 140°10'1210.2
2016-Feb-01 02:24N 34°54' E 139°58'11 9.3
2016-Feb-01 01:12N 34°57' E 139°45'810.5
2016-Feb-01 00:26N 35°05' E 139°45'1010.8
2016-Jan-31 23:33N 35°14' E 139°46'1010.2
2016-Jan-31 22:33N 35°24' E 139°43'5 5.0
2016-Jan-31 21:29N 35°22' E 139°49'0 0.0
2016-Jan-31 20:32N 35°22' E 139°49'0 0.0
2016-Jan-31 19:32N 35°22' E 139°49'0 0.0
2016-Jan-31 18:32N 35°22' E 139°49'0 0.0
2016-Jan-31 17:32N 35°22' E 139°49'0 0.0
2016-Jan-31 16:32N 35°22' E 139°49'0 0.1
2016-Jan-31 15:32N 35°22' E 139°49'0 0.0
2016-Jan-31 14:32N 35°22' E 139°49'0 0.0
2016-Jan-31 13:32N 35°22' E 139°49'0 0.1
2016-Jan-31 12:32N 35°22' E 139°49'0 0.0
2016-Jan-31 11:32N 35°22' E 139°49'0 0.0
2016-Jan-31 10:32N 35°22' E 139°49'0 0.0
2016-Jan-31 09:29N 35°22' E 139°49'0 0.1
2016-Jan-31 08:32N 35°22' E 139°49'0 0.0
2016-Jan-31 07:29N 35°22' E 139°49'0 0.0
2016-Jan-31 06:32N 35°22' E 139°49'0 0.0
2016-Jan-31 05:32N 35°22' E 139°49'0 0.0
2016-Jan-31 04:32N 35°22' E 139°49'0 0.0
2016-Jan-31 03:32N 35°22' E 139°49'0 0.0
2016-Jan-31 02:23N 35°22' E 139°49'0 0.0
2016-Jan-31 01:32N 35°22' E 139°49'0 0.0
2016-Jan-31 00:32N 35°22' E 139°49'0 0.0
2016-Jan-30 23:32N 35°22' E 139°49'0 0.0
2016-Jan-30 22:29N 35°22' E 139°49'0 0.0
2016-Jan-30 21:32N 35°22' E 139°49'0 0.0
2016-Jan-30 20:32N 35°22' E 139°49'0 0.0
2016-Jan-30 19:32N 35°22' E 139°49'0 0.0
2016-Jan-30 18:23N 35°22' E 139°49'0 0.0
2016-Jan-30 17:32N 35°22' E 139°49'0 0.0
2016-Jan-30 16:32N 35°22' E 139°49'0 0.0
2016-Jan-30 15:32N 35°22' E 139°49'0 0.0
2016-Jan-30 14:32N 35°22' E 139°49'0 0.0
2016-Jan-30 13:32N 35°22' E 139°49'0 0.0
2016-Jan-30 12:32N 35°22' E 139°49'0 0.0
2016-Jan-30 11:29N 35°22' E 139°49'0 0.1
2016-Jan-30 10:32N 35°22' E 139°49'0 0.0
2016-Jan-30 09:32N 35°22' E 139°49'0 0.0
2016-Jan-30 08:32N 35°22' E 139°49'0 0.0
2016-Jan-30 07:29N 35°22' E 139°49'0 0.0
2016-Jan-30 06:32N 35°22' E 139°49'0 0.0
2016-Jan-30 05:29N 35°22' E 139°49'0 0.0
2016-Jan-30 04:32N 35°22' E 139°49'0 0.0
2016-Jan-30 03:32N 35°22' E 139°49'0 0.0
2016-Jan-30 02:32N 35°22' E 139°49'0 0.0
2016-Jan-30 01:32N 35°22' E 139°49'0 0.0
2016-Jan-30 00:32N 35°22' E 139°49'0 0.0
2016-Jan-29 23:32N 35°22' E 139°49'0 0.0
2016-Jan-29 22:32N 35°22' E 139°49'0 0.0
2016-Jan-29 21:33N 35°22' E 139°49'0 0.0
2016-Jan-29 20:34N 35°22' E 139°49'0 0.0
2016-Jan-29 19:33N 35°22' E 139°49'0 0.0
2016-Jan-29 18:33N 35°22' E 139°49'0 0.0
2016-Jan-29 17:33N 35°22' E 139°49'0 0.0
2016-Jan-29 16:34N 35°22' E 139°49'0 0.0
2016-Jan-29 15:33N 35°22' E 139°49'0 0.0
2016-Jan-29 14:33N 35°22' E 139°49'0 0.0
2016-Jan-29 13:25N 35°22' E 139°49'2 0.1
2016-Jan-28 22:24N 35°21' E 139°51'2 2.7
2016-Jan-28 21:33N 35°22' E 139°49'0 0.0
2016-Jan-28 20:33N 35°22' E 139°49'0 0.1
2016-Jan-28 19:33N 35°22' E 139°49'0 0.0
2016-Jan-28 18:30N 35°22' E 139°49'0 0.0
2016-Jan-28 17:33N 35°22' E 139°49'0 0.0
2016-Jan-28 16:33N 35°22' E 139°49'0 0.0
2016-Jan-28 15:24N 35°22' E 139°49'0 0.0
2016-Jan-28 14:33N 35°22' E 139°49'0 0.0
2016-Jan-28 13:30N 35°22' E 139°49'0 0.0
2016-Jan-28 12:33N 35°22' E 139°49'0 0.0
2016-Jan-28 11:33N 35°22' E 139°49'0 0.0
2016-Jan-28 10:33N 35°22' E 139°49'0 0.1
2016-Jan-28 09:33N 35°22' E 139°49'0 0.0
2016-Jan-28 08:33N 35°22' E 139°49'0 0.0
2016-Jan-28 07:33N 35°22' E 139°49'0 0.0
2016-Jan-28 06:33N 35°22' E 139°49'9 9.0
2016-Jan-28 05:33N 35°31' E 139°54'1110.7
2016-Jan-28 04:33N 35°37' E 140°05'0 0.0
2016-Jan-28 03:31N 35°37' E 140°05'0 0.0
2016-Jan-28 02:31N 35°37' E 140°05'0 0.0
2016-Jan-28 01:25N 35°37' E 140°05'0 0.0
2016-Jan-28 00:07N 35°37' E 140°05'0 0.0
2016-Jan-27 23:31N 35°37' E 140°05'2 1.9
2016-Jan-27 22:33N 35°35' E 140°04'9 9.5
2016-Jan-27 21:33N 35°36' E 139°52'4 3.8
2016-Jan-27 20:31N 35°38' E 139°48'0 0.0
2016-Jan-27 19:31N 35°38' E 139°48'0 0.0
2016-Jan-27 18:28N 35°38' E 139°48'0 0.0
2016-Jan-27 17:28N 35°38' E 139°48'0 0.0
2016-Jan-27 16:31N 35°38' E 139°48'0 0.0
2016-Jan-27 15:28N 35°38' E 139°48'0 0.0
2016-Jan-27 14:28N 35°38' E 139°48'0 0.0
2016-Jan-27 13:28N 35°38' E 139°48'0 0.0
2016-Jan-27 12:28N 35°38' E 139°48'0 0.0
2016-Jan-27 11:28N 35°38' E 139°48'0 0.1
2016-Jan-27 10:31N 35°38' E 139°48'0 0.1
2016-Jan-27 09:28N 35°38' E 139°48'0 0.0
2016-Jan-27 08:25N 35°38' E 139°48'0 0.1
2016-Jan-27 07:19N 35°38' E 139°48'0 0.1
2016-Jan-27 06:31N 35°38' E 139°48'0 0.0
2016-Jan-27 05:28N 35°38' E 139°48'1 1.4
2016-Jan-27 04:33N 35°37' E 139°49'9 9.3
2016-Jan-27 03:33N 35°28' E 139°50'1010.4
2016-Jan-27 02:33N 35°18' E 139°44'10 9.5
2016-Jan-27 01:33N 35°09' E 139°45'  

Dump ship's entire track history